sensor_id;sensor_type;location;lat;lon;timestamp;P1;durP1;ratioP1;P2;durP2;ratioP2
5428;SDS011;2737;52.386;9.980;2022-12-18T00:00:47;19.33;;;7.20;;
5428;SDS011;2737;52.386;9.980;2022-12-18T00:03:14;18.17;;;8.50;;
5428;SDS011;2737;52.386;9.980;2022-12-18T00:05:47;18.03;;;7.50;;
5428;SDS011;2737;52.386;9.980;2022-12-18T00:08:15;20.43;;;8.27;;
5428;SDS011;2737;52.386;9.980;2022-12-18T00:10:43;16.73;;;8.10;;
5428;SDS011;2737;52.386;9.980;2022-12-18T00:13:10;13.10;;;6.93;;
5428;SDS011;2737;52.386;9.980;2022-12-18T00:15:39;18.53;;;6.77;;
5428;SDS011;2737;52.386;9.980;2022-12-18T00:18:06;19.93;;;6.47;;
5428;SDS011;2737;52.386;9.980;2022-12-18T00:20:35;15.60;;;7.03;;
5428;SDS011;2737;52.386;9.980;2022-12-18T00:23:03;14.37;;;7.30;;
5428;SDS011;2737;52.386;9.980;2022-12-18T00:25:32;14.13;;;6.87;;
5428;SDS011;2737;52.386;9.980;2022-12-18T00:27:59;17.47;;;7.20;;
5428;SDS011;2737;52.386;9.980;2022-12-18T00:30:26;13.60;;;6.83;;
5428;SDS011;2737;52.386;9.980;2022-12-18T00:32:55;18.87;;;7.37;;
5428;SDS011;2737;52.386;9.980;2022-12-18T00:35:22;19.80;;;7.10;;
5428;SDS011;2737;52.386;9.980;2022-12-18T00:37:49;14.30;;;7.10;;
5428;SDS011;2737;52.386;9.980;2022-12-18T00:40:16;13.17;;;6.40;;
5428;SDS011;2737;52.386;9.980;2022-12-18T00:42:43;27.40;;;7.63;;
5428;SDS011;2737;52.386;9.980;2022-12-18T00:45:21;15.43;;;7.07;;
5428;SDS011;2737;52.386;9.980;2022-12-18T00:47:48;14.93;;;7.00;;
5428;SDS011;2737;52.386;9.980;2022-12-18T00:50:17;14.10;;;7.50;;
5428;SDS011;2737;52.386;9.980;2022-12-18T00:52:45;14.10;;;6.73;;
5428;SDS011;2737;52.386;9.980;2022-12-18T00:55:12;14.60;;;7.07;;
5428;SDS011;2737;52.386;9.980;2022-12-18T00:57:39;15.97;;;7.10;;
5428;SDS011;2737;52.386;9.980;2022-12-18T01:00:07;12.23;;;6.37;;
5428;SDS011;2737;52.386;9.980;2022-12-18T01:02:37;14.50;;;8.00;;
5428;SDS011;2737;52.386;9.980;2022-12-18T01:05:04;13.13;;;7.17;;
5428;SDS011;2737;52.386;9.980;2022-12-18T01:07:33;20.37;;;6.70;;
5428;SDS011;2737;52.386;9.980;2022-12-18T01:10:00;13.60;;;6.97;;
5428;SDS011;2737;52.386;9.980;2022-12-18T01:12:27;16.57;;;8.00;;
5428;SDS011;2737;52.386;9.980;2022-12-18T01:14:54;12.33;;;6.67;;
5428;SDS011;2737;52.386;9.980;2022-12-18T01:17:22;19.07;;;7.23;;
5428;SDS011;2737;52.386;9.980;2022-12-18T01:19:49;14.33;;;7.17;;
5428;SDS011;2737;52.386;9.980;2022-12-18T01:22:16;18.37;;;7.90;;
5428;SDS011;2737;52.386;9.980;2022-12-18T01:24:44;13.97;;;7.53;;
5428;SDS011;2737;52.386;9.980;2022-12-18T01:27:11;19.13;;;8.00;;
5428;SDS011;2737;52.386;9.980;2022-12-18T01:29:38;22.23;;;8.70;;
5428;SDS011;2737;52.386;9.980;2022-12-18T01:32:05;17.87;;;7.30;;
5428;SDS011;2737;52.386;9.980;2022-12-18T01:34:32;23.67;;;7.83;;
5428;SDS011;2737;52.386;9.980;2022-12-18T01:37:02;20.80;;;7.50;;
5428;SDS011;2737;52.386;9.980;2022-12-18T01:39:29;14.37;;;7.10;;
5428;SDS011;2737;52.386;9.980;2022-12-18T01:41:59;17.10;;;7.60;;
5428;SDS011;2737;52.386;9.980;2022-12-18T01:47:26;12.40;;;7.00;;
5428;SDS011;2737;52.386;9.980;2022-12-18T01:50:01;14.37;;;7.20;;
5428;SDS011;2737;52.386;9.980;2022-12-18T01:52:30;20.20;;;6.87;;
5428;SDS011;2737;52.386;9.980;2022-12-18T01:54:59;25.70;;;7.00;;
5428;SDS011;2737;52.386;9.980;2022-12-18T01:57:28;19.80;;;7.77;;
5428;SDS011;2737;52.386;9.980;2022-12-18T01:59:57;13.83;;;7.10;;
5428;SDS011;2737;52.386;9.980;2022-12-18T02:02:27;12.73;;;5.83;;
5428;SDS011;2737;52.386;9.980;2022-12-18T02:04:55;13.20;;;6.30;;
5428;SDS011;2737;52.386;9.980;2022-12-18T02:07:24;15.80;;;6.23;;
5428;SDS011;2737;52.386;9.980;2022-12-18T02:09:59;18.40;;;6.60;;
5428;SDS011;2737;52.386;9.980;2022-12-18T02:12:33;16.77;;;6.80;;
5428;SDS011;2737;52.386;9.980;2022-12-18T02:15:07;11.83;;;5.97;;
5428;SDS011;2737;52.386;9.980;2022-12-18T02:17:40;16.70;;;6.57;;
5428;SDS011;2737;52.386;9.980;2022-12-18T02:20:13;14.90;;;7.27;;
5428;SDS011;2737;52.386;9.980;2022-12-18T02:22:50;15.10;;;7.40;;
5428;SDS011;2737;52.386;9.980;2022-12-18T02:25:34;13.40;;;6.10;;
5428;SDS011;2737;52.386;9.980;2022-12-18T02:28:13;12.10;;;6.20;;
5428;SDS011;2737;52.386;9.980;2022-12-18T02:30:44;12.73;;;6.27;;
5428;SDS011;2737;52.386;9.980;2022-12-18T02:33:14;14.93;;;6.30;;
5428;SDS011;2737;52.386;9.980;2022-12-18T02:35:42;16.77;;;7.10;;
5428;SDS011;2737;52.386;9.980;2022-12-18T02:38:11;15.40;;;6.80;;
5428;SDS011;2737;52.386;9.980;2022-12-18T02:40:39;15.60;;;6.00;;
5428;SDS011;2737;52.386;9.980;2022-12-18T02:43:07;13.53;;;6.90;;
5428;SDS011;2737;52.386;9.980;2022-12-18T02:45:36;9.13;;;5.47;;
5428;SDS011;2737;52.386;9.980;2022-12-18T02:48:12;10.30;;;5.80;;
5428;SDS011;2737;52.386;9.980;2022-12-18T02:50:41;14.77;;;6.30;;
5428;SDS011;2737;52.386;9.980;2022-12-18T02:53:17;13.73;;;6.47;;
5428;SDS011;2737;52.386;9.980;2022-12-18T02:55:52;17.07;;;6.83;;
5428;SDS011;2737;52.386;9.980;2022-12-18T02:58:26;13.03;;;6.07;;
5428;SDS011;2737;52.386;9.980;2022-12-18T03:01:00;12.10;;;6.60;;
5428;SDS011;2737;52.386;9.980;2022-12-18T03:03:33;12.83;;;6.00;;
5428;SDS011;2737;52.386;9.980;2022-12-18T03:06:04;14.73;;;6.33;;
5428;SDS011;2737;52.386;9.980;2022-12-18T03:08:36;17.73;;;6.30;;
5428;SDS011;2737;52.386;9.980;2022-12-18T03:11:06;14.63;;;6.00;;
5428;SDS011;2737;52.386;9.980;2022-12-18T03:13:36;13.50;;;6.20;;
5428;SDS011;2737;52.386;9.980;2022-12-18T03:16:08;14.67;;;6.90;;
5428;SDS011;2737;52.386;9.980;2022-12-18T03:18:38;15.40;;;6.47;;
5428;SDS011;2737;52.386;9.980;2022-12-18T03:21:08;25.97;;;5.83;;
5428;SDS011;2737;52.386;9.980;2022-12-18T03:23:39;14.80;;;6.37;;
5428;SDS011;2737;52.386;9.980;2022-12-18T03:26:10;14.23;;;6.10;;
5428;SDS011;2737;52.386;9.980;2022-12-18T03:28:39;16.00;;;6.00;;
5428;SDS011;2737;52.386;9.980;2022-12-18T03:31:13;12.90;;;6.03;;
5428;SDS011;2737;52.386;9.980;2022-12-18T03:33:41;14.30;;;5.87;;
5428;SDS011;2737;52.386;9.980;2022-12-18T03:36:12;15.27;;;6.40;;
5428;SDS011;2737;52.386;9.980;2022-12-18T03:38:40;13.50;;;6.80;;
5428;SDS011;2737;52.386;9.980;2022-12-18T03:41:09;13.73;;;6.17;;
5428;SDS011;2737;52.386;9.980;2022-12-18T03:43:43;13.77;;;6.30;;
5428;SDS011;2737;52.386;9.980;2022-12-18T03:46:20;9.87;;;5.83;;
5428;SDS011;2737;52.386;9.980;2022-12-18T03:48:56;13.27;;;5.80;;
5428;SDS011;2737;52.386;9.980;2022-12-18T03:51:31;15.17;;;5.60;;
5428;SDS011;2737;52.386;9.980;2022-12-18T03:54:04;9.60;;;5.50;;
5428;SDS011;2737;52.386;9.980;2022-12-18T03:56:36;14.60;;;5.30;;
5428;SDS011;2737;52.386;9.980;2022-12-18T03:59:06;9.30;;;5.47;;
5428;SDS011;2737;52.386;9.980;2022-12-18T04:01:38;10.60;;;5.83;;
5428;SDS011;2737;52.386;9.980;2022-12-18T04:04:08;13.00;;;6.30;;
5428;SDS011;2737;52.386;9.980;2022-12-18T04:06:37;10.40;;;5.70;;
5428;SDS011;2737;52.386;9.980;2022-12-18T04:09:06;11.10;;;5.97;;
5428;SDS011;2737;52.386;9.980;2022-12-18T04:11:33;13.60;;;5.63;;
5428;SDS011;2737;52.386;9.980;2022-12-18T04:14:00;12.70;;;5.67;;
5428;SDS011;2737;52.386;9.980;2022-12-18T04:16:27;7.33;;;4.30;;
5428;SDS011;2737;52.386;9.980;2022-12-18T04:18:56;12.23;;;6.03;;
5428;SDS011;2737;52.386;9.980;2022-12-18T04:21:24;10.63;;;5.90;;
5428;SDS011;2737;52.386;9.980;2022-12-18T04:23:51;11.03;;;5.70;;
5428;SDS011;2737;52.386;9.980;2022-12-18T04:26:18;10.57;;;5.13;;
5428;SDS011;2737;52.386;9.980;2022-12-18T04:28:45;10.17;;;5.47;;
5428;SDS011;2737;52.386;9.980;2022-12-18T04:31:12;11.30;;;5.00;;
5428;SDS011;2737;52.386;9.980;2022-12-18T04:33:39;9.80;;;5.30;;
5428;SDS011;2737;52.386;9.980;2022-12-18T04:36:08;13.30;;;5.50;;
5428;SDS011;2737;52.386;9.980;2022-12-18T04:38:37;11.90;;;5.80;;
5428;SDS011;2737;52.386;9.980;2022-12-18T04:41:04;10.57;;;5.23;;
5428;SDS011;2737;52.386;9.980;2022-12-18T04:43:31;13.80;;;6.40;;
5428;SDS011;2737;52.386;9.980;2022-12-18T04:46:02;14.73;;;6.63;;
5428;SDS011;2737;52.386;9.980;2022-12-18T04:48:30;10.47;;;5.00;;
5428;SDS011;2737;52.386;9.980;2022-12-18T04:50:57;9.57;;;4.97;;
5428;SDS011;2737;52.386;9.980;2022-12-18T04:53:26;14.60;;;6.20;;
5428;SDS011;2737;52.386;9.980;2022-12-18T04:56:01;9.53;;;4.67;;
5428;SDS011;2737;52.386;9.980;2022-12-18T04:58:29;10.70;;;4.90;;
5428;SDS011;2737;52.386;9.980;2022-12-18T05:00:57;7.50;;;4.60;;
5428;SDS011;2737;52.386;9.980;2022-12-18T05:03:24;10.17;;;4.73;;
5428;SDS011;2737;52.386;9.980;2022-12-18T05:05:51;9.93;;;4.87;;
5428;SDS011;2737;52.386;9.980;2022-12-18T05:08:18;10.17;;;5.23;;
5428;SDS011;2737;52.386;9.980;2022-12-18T05:10:47;10.97;;;5.37;;
5428;SDS011;2737;52.386;9.980;2022-12-18T05:13:14;8.13;;;5.03;;
5428;SDS011;2737;52.386;9.980;2022-12-18T05:15:41;11.30;;;4.90;;
5428;SDS011;2737;52.386;9.980;2022-12-18T05:18:08;8.73;;;4.30;;
5428;SDS011;2737;52.386;9.980;2022-12-18T05:20:35;11.83;;;4.70;;
5428;SDS011;2737;52.386;9.980;2022-12-18T05:23:02;8.10;;;4.37;;
5428;SDS011;2737;52.386;9.980;2022-12-18T05:25:29;8.57;;;4.50;;
5428;SDS011;2737;52.386;9.980;2022-12-18T05:27:57;16.27;;;5.20;;
5428;SDS011;2737;52.386;9.980;2022-12-18T05:30:24;10.50;;;4.90;;
5428;SDS011;2737;52.386;9.980;2022-12-18T05:32:52;11.93;;;5.40;;
5428;SDS011;2737;52.386;9.980;2022-12-18T05:35:19;10.63;;;4.93;;
5428;SDS011;2737;52.386;9.980;2022-12-18T05:37:46;10.33;;;4.80;;
5428;SDS011;2737;52.386;9.980;2022-12-18T05:40:13;9.27;;;4.97;;
5428;SDS011;2737;52.386;9.980;2022-12-18T05:42:40;9.23;;;4.60;;
5428;SDS011;2737;52.386;9.980;2022-12-18T05:45:09;16.73;;;5.47;;
5428;SDS011;2737;52.386;9.980;2022-12-18T05:47:36;10.63;;;4.67;;
5428;SDS011;2737;52.386;9.980;2022-12-18T05:50:04;9.93;;;4.67;;
5428;SDS011;2737;52.386;9.980;2022-12-18T05:52:32;10.97;;;5.10;;
5428;SDS011;2737;52.386;9.980;2022-12-18T05:54:59;10.10;;;5.17;;
5428;SDS011;2737;52.386;9.980;2022-12-18T05:57:26;11.63;;;5.17;;
5428;SDS011;2737;52.386;9.980;2022-12-18T05:59:53;14.60;;;5.10;;
5428;SDS011;2737;52.386;9.980;2022-12-18T06:02:22;8.40;;;4.70;;
5428;SDS011;2737;52.386;9.980;2022-12-18T06:04:49;9.27;;;4.50;;
5428;SDS011;2737;52.386;9.980;2022-12-18T06:07:16;12.30;;;5.10;;
5428;SDS011;2737;52.386;9.980;2022-12-18T06:09:43;10.97;;;5.00;;
5428;SDS011;2737;52.386;9.980;2022-12-18T06:12:10;9.80;;;4.50;;
5428;SDS011;2737;52.386;9.980;2022-12-18T06:14:37;7.67;;;4.60;;
5428;SDS011;2737;52.386;9.980;2022-12-18T06:17:04;8.23;;;4.50;;
5428;SDS011;2737;52.386;9.980;2022-12-18T06:19:32;10.60;;;5.20;;
5428;SDS011;2737;52.386;9.980;2022-12-18T06:21:59;8.47;;;4.40;;
5428;SDS011;2737;52.386;9.980;2022-12-18T06:24:26;10.87;;;4.37;;
5428;SDS011;2737;52.386;9.980;2022-12-18T06:26:53;13.07;;;5.00;;
5428;SDS011;2737;52.386;9.980;2022-12-18T06:29:20;10.87;;;4.27;;
5428;SDS011;2737;52.386;9.980;2022-12-18T06:31:48;8.23;;;4.80;;
5428;SDS011;2737;52.386;9.980;2022-12-18T06:34:15;14.37;;;6.97;;
5428;SDS011;2737;52.386;9.980;2022-12-18T06:36:43;35.37;;;13.97;;
5428;SDS011;2737;52.386;9.980;2022-12-18T06:39:10;19.20;;;9.13;;
5428;SDS011;2737;52.386;9.980;2022-12-18T06:41:37;9.60;;;4.70;;
5428;SDS011;2737;52.386;9.980;2022-12-18T06:44:04;14.20;;;5.30;;
5428;SDS011;2737;52.386;9.980;2022-12-18T06:46:31;11.43;;;5.50;;
5428;SDS011;2737;52.386;9.980;2022-12-18T06:48:58;9.17;;;5.40;;
5428;SDS011;2737;52.386;9.980;2022-12-18T06:51:25;13.40;;;5.17;;
5428;SDS011;2737;52.386;9.980;2022-12-18T06:53:54;8.57;;;4.10;;
5428;SDS011;2737;52.386;9.980;2022-12-18T06:56:21;11.27;;;4.83;;
5428;SDS011;2737;52.386;9.980;2022-12-18T06:58:48;7.47;;;4.20;;
5428;SDS011;2737;52.386;9.980;2022-12-18T07:01:15;14.73;;;5.10;;
5428;SDS011;2737;52.386;9.980;2022-12-18T07:03:42;15.13;;;5.40;;
5428;SDS011;2737;52.386;9.980;2022-12-18T07:06:13;11.90;;;5.50;;
5428;SDS011;2737;52.386;9.980;2022-12-18T07:08:41;16.30;;;5.70;;
5428;SDS011;2737;52.386;9.980;2022-12-18T07:11:09;12.97;;;5.40;;
5428;SDS011;2737;52.386;9.980;2022-12-18T07:13:37;9.40;;;5.70;;
5428;SDS011;2737;52.386;9.980;2022-12-18T07:16:05;7.80;;;4.90;;
5428;SDS011;2737;52.386;9.980;2022-12-18T07:18:34;9.63;;;4.90;;
5428;SDS011;2737;52.386;9.980;2022-12-18T07:21:04;13.33;;;5.77;;
5428;SDS011;2737;52.386;9.980;2022-12-18T07:23:32;12.20;;;5.90;;
5428;SDS011;2737;52.386;9.980;2022-12-18T07:26:00;15.23;;;5.63;;
5428;SDS011;2737;52.386;9.980;2022-12-18T07:28:30;13.47;;;7.30;;
5428;SDS011;2737;52.386;9.980;2022-12-18T07:30:57;17.40;;;7.20;;
5428;SDS011;2737;52.386;9.980;2022-12-18T07:33:25;15.27;;;6.37;;
5428;SDS011;2737;52.386;9.980;2022-12-18T07:35:52;20.90;;;7.60;;
5428;SDS011;2737;52.386;9.980;2022-12-18T07:38:19;13.30;;;6.20;;
5428;SDS011;2737;52.386;9.980;2022-12-18T07:40:47;16.07;;;7.37;;
5428;SDS011;2737;52.386;9.980;2022-12-18T07:43:14;14.50;;;7.00;;
5428;SDS011;2737;52.386;9.980;2022-12-18T07:45:43;14.23;;;7.20;;
5428;SDS011;2737;52.386;9.980;2022-12-18T07:48:10;27.83;;;13.13;;
5428;SDS011;2737;52.386;9.980;2022-12-18T07:50:37;18.00;;;8.10;;
5428;SDS011;2737;52.386;9.980;2022-12-18T07:53:04;19.47;;;8.70;;
5428;SDS011;2737;52.386;9.980;2022-12-18T07:55:31;16.50;;;7.47;;
5428;SDS011;2737;52.386;9.980;2022-12-18T07:58:00;15.10;;;7.00;;
5428;SDS011;2737;52.386;9.980;2022-12-18T08:00:28;17.27;;;8.13;;
5428;SDS011;2737;52.386;9.980;2022-12-18T08:02:56;20.10;;;8.00;;
5428;SDS011;2737;52.386;9.980;2022-12-18T08:05:23;17.77;;;7.93;;
5428;SDS011;2737;52.386;9.980;2022-12-18T08:07:51;20.57;;;9.57;;
5428;SDS011;2737;52.386;9.980;2022-12-18T08:10:18;27.10;;;9.90;;
5428;SDS011;2737;52.386;9.980;2022-12-18T08:12:48;19.60;;;9.20;;
5428;SDS011;2737;52.386;9.980;2022-12-18T08:15:16;28.10;;;11.00;;
5428;SDS011;2737;52.386;9.980;2022-12-18T08:17:43;23.80;;;10.13;;
5428;SDS011;2737;52.386;9.980;2022-12-18T08:20:12;27.87;;;10.83;;
5428;SDS011;2737;52.386;9.980;2022-12-18T08:22:40;26.03;;;8.23;;
5428;SDS011;2737;52.386;9.980;2022-12-18T08:25:07;21.03;;;8.87;;
5428;SDS011;2737;52.386;9.980;2022-12-18T08:27:35;20.03;;;9.20;;
5428;SDS011;2737;52.386;9.980;2022-12-18T08:30:02;20.53;;;8.47;;
5428;SDS011;2737;52.386;9.980;2022-12-18T08:32:30;26.43;;;9.30;;
5428;SDS011;2737;52.386;9.980;2022-12-18T08:34:58;26.30;;;11.93;;
5428;SDS011;2737;52.386;9.980;2022-12-18T08:37:26;26.53;;;11.30;;
5428;SDS011;2737;52.386;9.980;2022-12-18T08:39:53;24.03;;;10.53;;
5428;SDS011;2737;52.386;9.980;2022-12-18T08:42:20;29.20;;;11.97;;
5428;SDS011;2737;52.386;9.980;2022-12-18T08:45:05;27.33;;;11.37;;
5428;SDS011;2737;52.386;9.980;2022-12-18T08:47:32;34.80;;;11.47;;
5428;SDS011;2737;52.386;9.980;2022-12-18T08:49:59;29.47;;;12.80;;
5428;SDS011;2737;52.386;9.980;2022-12-18T08:52:28;34.10;;;12.80;;
5428;SDS011;2737;52.386;9.980;2022-12-18T08:54:57;38.20;;;13.83;;
5428;SDS011;2737;52.386;9.980;2022-12-18T08:57:24;26.00;;;10.50;;
5428;SDS011;2737;52.386;9.980;2022-12-18T08:59:51;18.10;;;8.00;;
5428;SDS011;2737;52.386;9.980;2022-12-18T09:02:18;15.00;;;7.03;;
5428;SDS011;2737;52.386;9.980;2022-12-18T09:04:46;19.03;;;7.90;;
5428;SDS011;2737;52.386;9.980;2022-12-18T09:07:13;15.00;;;7.07;;
5428;SDS011;2737;52.386;9.980;2022-12-18T09:09:41;15.90;;;7.10;;
5428;SDS011;2737;52.386;9.980;2022-12-18T09:12:09;13.60;;;6.43;;
5428;SDS011;2737;52.386;9.980;2022-12-18T09:14:36;16.13;;;8.10;;
5428;SDS011;2737;52.386;9.980;2022-12-18T09:17:03;17.87;;;7.60;;
5428;SDS011;2737;52.386;9.980;2022-12-18T09:19:30;13.70;;;6.60;;
5428;SDS011;2737;52.386;9.980;2022-12-18T09:21:57;21.40;;;8.57;;
5428;SDS011;2737;52.386;9.980;2022-12-18T09:24:24;12.80;;;7.13;;
5428;SDS011;2737;52.386;9.980;2022-12-18T09:26:54;16.97;;;7.87;;
5428;SDS011;2737;52.386;9.980;2022-12-18T09:29:21;19.90;;;8.60;;
5428;SDS011;2737;52.386;9.980;2022-12-18T09:31:48;25.00;;;8.87;;
5428;SDS011;2737;52.386;9.980;2022-12-18T09:34:15;15.80;;;8.23;;
5428;SDS011;2737;52.386;9.980;2022-12-18T09:36:42;15.27;;;7.50;;
5428;SDS011;2737;52.386;9.980;2022-12-18T09:39:10;12.73;;;6.93;;
5428;SDS011;2737;52.386;9.980;2022-12-18T09:41:44;18.20;;;8.00;;
5428;SDS011;2737;52.386;9.980;2022-12-18T09:44:24;14.33;;;6.50;;
5428;SDS011;2737;52.386;9.980;2022-12-18T09:47:02;13.10;;;7.83;;
5428;SDS011;2737;52.386;9.980;2022-12-18T09:49:40;18.23;;;7.70;;
5428;SDS011;2737;52.386;9.980;2022-12-18T09:52:11;17.30;;;8.57;;
5428;SDS011;2737;52.386;9.980;2022-12-18T09:54:42;18.20;;;8.33;;
5428;SDS011;2737;52.386;9.980;2022-12-18T09:57:13;18.43;;;8.17;;
5428;SDS011;2737;52.386;9.980;2022-12-18T09:59:43;17.20;;;8.17;;
5428;SDS011;2737;52.386;9.980;2022-12-18T10:02:16;16.67;;;7.70;;
5428;SDS011;2737;52.386;9.980;2022-12-18T10:04:52;19.37;;;8.97;;
5428;SDS011;2737;52.386;9.980;2022-12-18T10:07:30;17.00;;;8.00;;
5428;SDS011;2737;52.386;9.980;2022-12-18T10:10:04;18.40;;;8.80;;
5428;SDS011;2737;52.386;9.980;2022-12-18T10:12:38;22.40;;;9.50;;
5428;SDS011;2737;52.386;9.980;2022-12-18T10:15:13;25.40;;;9.43;;
5428;SDS011;2737;52.386;9.980;2022-12-18T10:17:50;18.63;;;9.40;;
5428;SDS011;2737;52.386;9.980;2022-12-18T10:20:23;19.30;;;9.53;;
5428;SDS011;2737;52.386;9.980;2022-12-18T10:22:57;24.00;;;10.70;;
5428;SDS011;2737;52.386;9.980;2022-12-18T10:25:31;18.53;;;9.67;;
5428;SDS011;2737;52.386;9.980;2022-12-18T10:28:07;22.00;;;9.87;;
5428;SDS011;2737;52.386;9.980;2022-12-18T10:30:42;24.40;;;10.33;;
5428;SDS011;2737;52.386;9.980;2022-12-18T10:33:10;27.50;;;10.50;;
5428;SDS011;2737;52.386;9.980;2022-12-18T10:35:41;22.40;;;9.73;;
5428;SDS011;2737;52.386;9.980;2022-12-18T10:38:20;25.93;;;11.03;;
5428;SDS011;2737;52.386;9.980;2022-12-18T10:40:49;29.17;;;11.23;;
5428;SDS011;2737;52.386;9.980;2022-12-18T10:43:20;23.93;;;10.17;;
5428;SDS011;2737;52.386;9.980;2022-12-18T10:45:59;25.30;;;10.37;;
5428;SDS011;2737;52.386;9.980;2022-12-18T10:48:28;22.60;;;10.10;;
5428;SDS011;2737;52.386;9.980;2022-12-18T10:50:57;22.83;;;9.07;;
5428;SDS011;2737;52.386;9.980;2022-12-18T10:53:24;22.63;;;10.90;;
5428;SDS011;2737;52.386;9.980;2022-12-18T10:55:53;23.73;;;10.43;;
5428;SDS011;2737;52.386;9.980;2022-12-18T10:58:25;27.17;;;12.07;;
5428;SDS011;2737;52.386;9.980;2022-12-18T11:01:04;30.50;;;10.47;;
5428;SDS011;2737;52.386;9.980;2022-12-18T11:03:34;23.20;;;9.50;;
5428;SDS011;2737;52.386;9.980;2022-12-18T11:06:04;21.23;;;8.80;;
5428;SDS011;2737;52.386;9.980;2022-12-18T11:08:32;18.20;;;9.37;;
5428;SDS011;2737;52.386;9.980;2022-12-18T11:11:00;24.30;;;9.17;;
5428;SDS011;2737;52.386;9.980;2022-12-18T11:13:28;16.40;;;8.93;;
5428;SDS011;2737;52.386;9.980;2022-12-18T11:15:56;19.30;;;8.80;;
5428;SDS011;2737;52.386;9.980;2022-12-18T11:18:27;21.37;;;8.93;;
5428;SDS011;2737;52.386;9.980;2022-12-18T11:20:56;26.03;;;10.23;;
5428;SDS011;2737;52.386;9.980;2022-12-18T11:23:27;23.70;;;11.53;;
5428;SDS011;2737;52.386;9.980;2022-12-18T11:25:55;20.97;;;10.20;;
5428;SDS011;2737;52.386;9.980;2022-12-18T11:28:28;23.33;;;11.53;;
5428;SDS011;2737;52.386;9.980;2022-12-18T11:31:10;23.50;;;10.73;;
5428;SDS011;2737;52.386;9.980;2022-12-18T11:33:48;22.60;;;10.90;;
5428;SDS011;2737;52.386;9.980;2022-12-18T11:36:20;20.93;;;10.67;;
5428;SDS011;2737;52.386;9.980;2022-12-18T11:38:48;17.83;;;9.50;;
5428;SDS011;2737;52.386;9.980;2022-12-18T11:41:19;26.77;;;10.53;;
5428;SDS011;2737;52.386;9.980;2022-12-18T11:44:13;25.63;;;10.27;;
5428;SDS011;2737;52.386;9.980;2022-12-18T11:46:47;30.10;;;11.97;;
5428;SDS011;2737;52.386;9.980;2022-12-18T11:49:20;24.60;;;10.33;;
5428;SDS011;2737;52.386;9.980;2022-12-18T11:51:53;30.60;;;12.10;;
5428;SDS011;2737;52.386;9.980;2022-12-18T11:54:26;22.67;;;10.60;;
5428;SDS011;2737;52.386;9.980;2022-12-18T11:56:54;33.53;;;10.60;;
5428;SDS011;2737;52.386;9.980;2022-12-18T11:59:28;22.70;;;9.57;;
5428;SDS011;2737;52.386;9.980;2022-12-18T12:02:01;21.70;;;9.57;;
5428;SDS011;2737;52.386;9.980;2022-12-18T12:04:50;25.37;;;10.30;;
5428;SDS011;2737;52.386;9.980;2022-12-18T12:07:31;24.00;;;10.30;;
5428;SDS011;2737;52.386;9.980;2022-12-18T12:10:13;24.93;;;9.20;;
5428;SDS011;2737;52.386;9.980;2022-12-18T12:12:54;21.37;;;9.00;;
5428;SDS011;2737;52.386;9.980;2022-12-18T12:15:33;20.93;;;10.30;;
5428;SDS011;2737;52.386;9.980;2022-12-18T12:18:13;23.33;;;9.67;;
5428;SDS011;2737;52.386;9.980;2022-12-18T12:20:52;20.90;;;9.27;;
5428;SDS011;2737;52.386;9.980;2022-12-18T12:23:32;23.33;;;11.00;;
5428;SDS011;2737;52.386;9.980;2022-12-18T12:26:06;26.27;;;10.30;;
5428;SDS011;2737;52.386;9.980;2022-12-18T12:28:47;22.87;;;11.10;;
5428;SDS011;2737;52.386;9.980;2022-12-18T12:31:29;21.40;;;11.10;;
5428;SDS011;2737;52.386;9.980;2022-12-18T12:34:05;22.63;;;10.23;;
5428;SDS011;2737;52.386;9.980;2022-12-18T12:36:44;24.10;;;10.43;;
5428;SDS011;2737;52.386;9.980;2022-12-18T12:39:22;30.07;;;12.40;;
5428;SDS011;2737;52.386;9.980;2022-12-18T12:41:53;27.30;;;11.63;;
5428;SDS011;2737;52.386;9.980;2022-12-18T12:44:39;20.33;;;10.03;;
5428;SDS011;2737;52.386;9.980;2022-12-18T12:47:11;33.63;;;12.80;;
5428;SDS011;2737;52.386;9.980;2022-12-18T12:49:44;24.63;;;11.77;;
5428;SDS011;2737;52.386;9.980;2022-12-18T12:52:15;28.53;;;11.33;;
5428;SDS011;2737;52.386;9.980;2022-12-18T12:54:51;25.73;;;11.33;;
5428;SDS011;2737;52.386;9.980;2022-12-18T12:57:20;28.03;;;12.50;;
5428;SDS011;2737;52.386;9.980;2022-12-18T12:59:50;20.40;;;9.73;;
5428;SDS011;2737;52.386;9.980;2022-12-18T13:02:26;30.90;;;10.90;;
5428;SDS011;2737;52.386;9.980;2022-12-18T13:04:58;22.10;;;10.37;;
5428;SDS011;2737;52.386;9.980;2022-12-18T13:07:34;22.53;;;9.17;;
5428;SDS011;2737;52.386;9.980;2022-12-18T13:10:25;26.97;;;10.30;;
5428;SDS011;2737;52.386;9.980;2022-12-18T13:12:58;21.53;;;8.90;;
5428;SDS011;2737;52.386;9.980;2022-12-18T13:15:28;22.07;;;9.43;;
5428;SDS011;2737;52.386;9.980;2022-12-18T13:18:03;20.23;;;9.50;;
5428;SDS011;2737;52.386;9.980;2022-12-18T13:20:32;22.50;;;9.57;;
5428;SDS011;2737;52.386;9.980;2022-12-18T13:23:02;27.20;;;9.33;;
5428;SDS011;2737;52.386;9.980;2022-12-18T13:25:51;22.80;;;9.53;;
5428;SDS011;2737;52.386;9.980;2022-12-18T13:28:20;24.17;;;9.17;;
5428;SDS011;2737;52.386;9.980;2022-12-18T13:30:51;15.57;;;8.40;;
5428;SDS011;2737;52.386;9.980;2022-12-18T13:33:38;25.27;;;10.67;;
5428;SDS011;2737;52.386;9.980;2022-12-18T13:36:15;19.47;;;9.03;;
5428;SDS011;2737;52.386;9.980;2022-12-18T13:39:20;18.70;;;8.90;;
5428;SDS011;2737;52.386;9.980;2022-12-18T13:45:39;20.40;;;9.53;;
5428;SDS011;2737;52.386;9.980;2022-12-18T13:48:14;21.20;;;9.33;;
5428;SDS011;2737;52.386;9.980;2022-12-18T13:50:52;24.53;;;11.23;;
5428;SDS011;2737;52.386;9.980;2022-12-18T13:53:23;21.93;;;9.47;;
5428;SDS011;2737;52.386;9.980;2022-12-18T13:55:55;25.47;;;10.13;;
5428;SDS011;2737;52.386;9.980;2022-12-18T13:58:22;16.90;;;9.13;;
5428;SDS011;2737;52.386;9.980;2022-12-18T14:00:49;20.80;;;9.00;;
5428;SDS011;2737;52.386;9.980;2022-12-18T14:03:20;22.37;;;10.20;;
5428;SDS011;2737;52.386;9.980;2022-12-18T14:05:54;30.17;;;9.37;;
5428;SDS011;2737;52.386;9.980;2022-12-18T14:08:25;21.10;;;8.90;;
5428;SDS011;2737;52.386;9.980;2022-12-18T14:10:59;24.67;;;10.23;;
5428;SDS011;2737;52.386;9.980;2022-12-18T14:13:30;25.33;;;11.77;;
5428;SDS011;2737;52.386;9.980;2022-12-18T14:16:00;24.73;;;11.10;;
5428;SDS011;2737;52.386;9.980;2022-12-18T14:18:29;27.70;;;10.90;;
5428;SDS011;2737;52.386;9.980;2022-12-18T14:21:02;26.77;;;11.60;;
5428;SDS011;2737;52.386;9.980;2022-12-18T14:23:32;27.07;;;12.77;;
5428;SDS011;2737;52.386;9.980;2022-12-18T14:26:02;25.07;;;11.77;;
5428;SDS011;2737;52.386;9.980;2022-12-18T14:28:44;25.07;;;11.10;;
5428;SDS011;2737;52.386;9.980;2022-12-18T14:31:16;23.13;;;11.37;;
5428;SDS011;2737;52.386;9.980;2022-12-18T14:33:44;24.37;;;10.90;;
5428;SDS011;2737;52.386;9.980;2022-12-18T14:36:13;28.80;;;11.90;;
5428;SDS011;2737;52.386;9.980;2022-12-18T14:38:42;26.13;;;10.00;;
5428;SDS011;2737;52.386;9.980;2022-12-18T14:41:15;21.50;;;10.37;;
5428;SDS011;2737;52.386;9.980;2022-12-18T14:43:44;20.70;;;10.27;;
5428;SDS011;2737;52.386;9.980;2022-12-18T14:46:26;19.57;;;10.03;;
5428;SDS011;2737;52.386;9.980;2022-12-18T14:48:57;28.30;;;11.23;;
5428;SDS011;2737;52.386;9.980;2022-12-18T14:51:25;25.40;;;11.40;;
5428;SDS011;2737;52.386;9.980;2022-12-18T14:53:54;19.40;;;10.80;;
5428;SDS011;2737;52.386;9.980;2022-12-18T14:56:25;26.53;;;11.57;;
5428;SDS011;2737;52.386;9.980;2022-12-18T14:58:54;22.40;;;10.77;;
5428;SDS011;2737;52.386;9.980;2022-12-18T15:01:23;19.90;;;10.57;;
5428;SDS011;2737;52.386;9.980;2022-12-18T15:03:53;26.50;;;12.97;;
5428;SDS011;2737;52.386;9.980;2022-12-18T15:06:32;27.20;;;12.87;;
5428;SDS011;2737;52.386;9.980;2022-12-18T15:09:01;25.17;;;11.03;;
5428;SDS011;2737;52.386;9.980;2022-12-18T15:11:36;34.77;;;13.97;;
5428;SDS011;2737;52.386;9.980;2022-12-18T15:14:24;26.47;;;13.10;;
5428;SDS011;2737;52.386;9.980;2022-12-18T15:17:00;31.33;;;12.50;;
5428;SDS011;2737;52.386;9.980;2022-12-18T15:19:32;28.13;;;11.30;;
5428;SDS011;2737;52.386;9.980;2022-12-18T15:22:13;26.73;;;11.43;;
5428;SDS011;2737;52.386;9.980;2022-12-18T15:24:48;22.77;;;12.27;;